createdAt,value
2023-05-09T00:01:45.408Z,8.39
2023-05-09T00:04:47.832Z,8.37
2023-05-09T00:07:50.129Z,8.28
2023-05-09T00:10:52.384Z,8.28
2023-05-09T00:13:56.709Z,8.17
2023-05-09T00:16:59.847Z,8.11
2023-05-09T00:20:05.308Z,8.12
2023-05-09T00:23:07.896Z,7.99
2023-05-09T00:26:10.892Z,7.94
2023-05-09T00:29:14.396Z,7.97
2023-05-09T00:32:16.810Z,7.87
2023-05-09T00:35:19.541Z,7.91
2023-05-09T00:38:23.663Z,7.82
2023-05-09T00:41:25.973Z,7.81
2023-05-09T00:44:28.241Z,7.83
2023-05-09T00:47:30.548Z,7.75
2023-05-09T00:50:32.856Z,7.77
2023-05-09T00:53:35.267Z,7.65
2023-05-09T00:56:37.742Z,7.62
2023-05-09T00:59:40.814Z,7.63
2023-05-09T01:02:50.017Z,7.56
2023-05-09T01:06:03.259Z,7.54
2023-05-09T01:09:16.502Z,7.57
2023-05-09T01:12:43.933Z,7.47
2023-05-09T01:15:52.304Z,7.43
2023-05-09T01:19:36.545Z,7.39
2023-05-09T01:22:51.732Z,7.41
2023-05-09T01:26:10.428Z,7.34
2023-05-09T01:29:36.676Z,7.15
2023-05-09T01:32:40.716Z,7.13
2023-05-09T01:35:50.454Z,7.11
2023-05-09T01:38:52.819Z,7.10
2023-05-09T01:41:57.878Z,7.10
2023-05-09T01:45:00.894Z,7.10
2023-05-09T01:48:06.567Z,7.01
2023-05-09T01:51:10.051Z,7.02
2023-05-09T01:54:12.987Z,7.02
2023-05-09T01:57:16.806Z,6.91
2023-05-09T02:00:22.705Z,6.92
2023-05-09T02:03:26.077Z,6.80
2023-05-09T02:06:29.973Z,6.72
2023-05-09T02:09:33.070Z,6.68
2023-05-09T02:12:35.531Z,6.61
2023-05-09T02:15:38.581Z,6.58
2023-05-09T02:18:41.807Z,6.58
2023-05-09T02:21:44.322Z,6.63
2023-05-09T02:24:46.578Z,6.65
2023-05-09T02:27:49.473Z,6.61
2023-05-09T02:30:54.823Z,6.74
2023-05-09T02:33:57.644Z,6.69
2023-05-09T02:37:00.317Z,6.69
2023-05-09T02:40:06.071Z,6.73
2023-05-09T02:43:08.545Z,6.85
2023-05-09T02:46:10.975Z,6.95
2023-05-09T02:49:26.745Z,6.91
2023-05-09T02:52:34.687Z,6.82
2023-05-09T02:55:37.378Z,6.88
2023-05-09T02:58:39.662Z,6.72
2023-05-09T03:01:42.002Z,6.78
2023-05-09T03:04:46.145Z,6.72
2023-05-09T03:07:49.006Z,6.72
2023-05-09T03:10:51.449Z,6.72
2023-05-09T03:13:53.711Z,6.62
2023-05-09T03:16:55.980Z,6.65
2023-05-09T03:20:08.074Z,6.61
2023-05-09T03:23:10.499Z,6.58
2023-05-09T03:26:13.189Z,6.57
2023-05-09T03:29:15.519Z,6.54
2023-05-09T03:32:17.786Z,6.54
2023-05-09T03:35:20.512Z,6.55
2023-05-09T03:38:24.477Z,6.66
2023-05-09T03:41:27.208Z,6.67
2023-05-09T03:44:29.925Z,6.79
2023-05-09T03:47:32.233Z,6.72
2023-05-09T03:50:34.644Z,6.79
2023-05-09T03:53:37.037Z,6.76
2023-05-09T03:56:40.750Z,6.84
2023-05-09T03:59:43.148Z,6.82
2023-05-09T04:02:46.459Z,6.95
2023-05-09T04:05:58.068Z,6.99
2023-05-09T04:09:07.002Z,7.00
2023-05-09T04:12:09.866Z,7.11
2023-05-09T04:15:12.432Z,7.18
2023-05-09T04:18:15.750Z,7.27
2023-05-09T04:21:18.040Z,7.31
2023-05-09T04:24:23.805Z,7.43
2023-05-09T04:27:28.141Z,7.49
2023-05-09T04:30:31.501Z,7.49
2023-05-09T04:33:35.676Z,7.57
2023-05-09T04:36:40.003Z,7.72
2023-05-09T04:39:43.466Z,7.93
2023-05-09T04:42:53.581Z,8.26
2023-05-09T04:45:59.373Z,8.68
2023-05-09T04:49:01.927Z,9.17
2023-05-09T04:52:04.394Z,9.51
2023-05-09T04:55:08.217Z,9.96
2023-05-09T04:58:16.342Z,10.68
2023-05-09T05:01:19.119Z,11.07
2023-05-09T05:04:22.170Z,11.62
2023-05-09T05:07:24.641Z,11.75
2023-05-09T05:10:27.010Z,11.94
2023-05-09T05:13:37.616Z,12.07
2023-05-09T05:16:41.310Z,12.51
2023-05-09T05:19:43.964Z,12.67
2023-05-09T05:22:50.194Z,12.53
2023-05-09T05:25:53.559Z,12.55
2023-05-09T05:28:57.194Z,12.82
2023-05-09T05:32:00.728Z,12.99
2023-05-09T05:35:05.000Z,13.69
2023-05-09T05:38:09.730Z,13.35
2023-05-09T05:41:12.884Z,13.39
2023-05-09T05:44:19.847Z,13.22
2023-05-09T05:47:22.170Z,13.36
2023-05-09T05:50:25.121Z,14.10
2023-05-09T05:53:30.760Z,14.23
2023-05-09T05:56:34.036Z,15.01
2023-05-09T05:59:37.667Z,15.32
2023-05-09T06:02:44.618Z,15.02
2023-05-09T06:05:56.210Z,15.86
2023-05-09T06:08:58.901Z,14.79
2023-05-09T06:12:01.493Z,15.20
2023-05-09T06:15:09.061Z,15.78
2023-05-09T06:18:14.946Z,15.70
2023-05-09T06:21:17.284Z,16.91
2023-05-09T06:24:31.858Z,16.76
2023-05-09T06:27:38.833Z,16.50
2023-05-09T06:30:41.540Z,17.52
2023-05-09T06:33:47.035Z,16.82
2023-05-09T06:36:49.353Z,17.86
2023-05-09T06:39:54.616Z,17.88
2023-05-09T06:42:57.254Z,17.95
2023-05-09T06:45:59.591Z,18.45
2023-05-09T06:49:02.647Z,18.56
2023-05-09T06:52:05.016Z,18.10
2023-05-09T06:55:13.795Z,17.96
2023-05-09T06:58:16.614Z,17.45
2023-05-09T07:01:19.126Z,18.25
2023-05-09T07:04:21.526Z,17.98
2023-05-09T07:07:23.785Z,18.34
2023-05-09T07:10:26.795Z,19.55
2023-05-09T07:13:29.357Z,18.65
2023-05-09T07:16:31.782Z,17.46
2023-05-09T07:19:34.120Z,18.65
2023-05-09T07:22:37.458Z,18.07
2023-05-09T07:25:40.080Z,18.69
2023-05-09T07:28:42.360Z,19.28
2023-05-09T07:31:47.747Z,20.00
2023-05-09T07:34:50.279Z,20.16
2023-05-09T07:37:52.559Z,20.91
2023-05-09T07:40:56.300Z,20.95
2023-05-09T07:43:58.853Z,20.37
2023-05-09T07:47:02.523Z,20.64
2023-05-09T07:50:05.204Z,19.47
2023-05-09T07:53:07.800Z,19.92
2023-05-09T07:56:13.571Z,20.16
2023-05-09T07:59:17.664Z,20.09
2023-05-09T08:02:20.165Z,20.55
2023-05-09T08:05:22.648Z,20.70
2023-05-09T08:08:25.180Z,21.14
2023-05-09T08:11:28.058Z,19.83
2023-05-09T08:14:30.766Z,21.06
2023-05-09T08:17:33.101Z,19.27
2023-05-09T08:20:36.267Z,20.26
2023-05-09T08:23:38.765Z,21.49
2023-05-09T08:26:41.035Z,20.81
2023-05-09T08:29:43.670Z,20.81
2023-05-09T08:32:46.054Z,19.27
2023-05-09T08:35:54.980Z,18.72
2023-05-09T08:38:57.307Z,19.40
2023-05-09T08:42:01.498Z,19.90
2023-05-09T08:45:11.655Z,20.00
2023-05-09T08:48:23.702Z,19.41
2023-05-09T08:51:27.408Z,19.20
2023-05-09T08:54:35.784Z,18.40
2023-05-09T08:57:38.536Z,19.27
2023-05-09T09:00:41.733Z,19.53
2023-05-09T09:03:47.801Z,20.61
2023-05-09T09:06:51.685Z,21.23
2023-05-09T09:09:55.872Z,20.40
2023-05-09T09:13:00.222Z,20.71
2023-05-09T09:16:03.050Z,20.02
2023-05-09T09:19:11.605Z,20.64
2023-05-09T09:22:16.091Z,19.38
2023-05-09T09:25:18.490Z,20.77
2023-05-09T09:28:21.177Z,20.61
2023-05-09T09:31:28.565Z,20.30
2023-05-09T09:34:31.104Z,20.25
2023-05-09T09:37:35.342Z,19.87
2023-05-09T09:40:40.628Z,20.06
2023-05-09T09:43:47.163Z,18.50
2023-05-09T09:46:53.308Z,16.77
2023-05-09T09:50:09.169Z,19.01
2023-05-09T09:53:11.641Z,19.63
2023-05-09T09:56:14.027Z,18.22
2023-05-09T09:59:18.216Z,19.40
2023-05-09T10:02:23.666Z,19.53
2023-05-09T10:05:30.585Z,19.64
2023-05-09T10:08:35.773Z,19.28
2023-05-09T10:11:38.211Z,19.17
2023-05-09T10:14:42.460Z,17.53
2023-05-09T10:17:44.902Z,18.47
2023-05-09T10:20:47.517Z,19.94
2023-05-09T10:23:52.529Z,19.20
2023-05-09T10:27:04.282Z,18.01
2023-05-09T10:30:17.169Z,17.77
2023-05-09T10:33:32.344Z,18.09
2023-05-09T10:36:37.327Z,17.78
2023-05-09T10:39:40.673Z,17.94
2023-05-09T10:42:44.210Z,17.92
2023-05-09T10:45:46.940Z,18.44
2023-05-09T10:48:50.968Z,18.00
2023-05-09T10:51:53.385Z,17.45
2023-05-09T10:55:05.230Z,17.23
2023-05-09T10:58:19.630Z,17.46
2023-05-09T11:01:39.743Z,18.04
2023-05-09T11:04:42.372Z,17.83
2023-05-09T11:07:47.702Z,17.58
2023-05-09T11:10:50.063Z,17.55
2023-05-09T11:13:58.512Z,17.98
2023-05-09T11:17:12.375Z,17.58
2023-05-09T11:20:14.818Z,17.71
2023-05-09T11:23:26.694Z,17.84
2023-05-09T11:26:34.898Z,17.87
2023-05-09T11:29:45.802Z,18.26
2023-05-09T11:32:53.487Z,19.16
2023-05-09T11:36:29.436Z,18.18
2023-05-09T11:39:31.899Z,18.37
2023-05-09T11:42:34.548Z,18.50
2023-05-09T11:45:45.646Z,18.20
2023-05-09T11:48:51.544Z,18.26
2023-05-09T11:51:53.978Z,18.92
2023-05-09T11:54:59.489Z,18.88
2023-05-09T11:58:01.993Z,18.55
2023-05-09T12:01:04.342Z,18.87
2023-05-09T12:04:08.416Z,18.68
2023-05-09T12:07:11.991Z,18.70
2023-05-09T12:10:15.762Z,18.43
2023-05-09T12:13:20.429Z,18.82
2023-05-09T12:16:24.948Z,19.13
2023-05-09T12:19:28.442Z,19.14
2023-05-09T12:22:32.929Z,18.78
2023-05-09T12:25:35.377Z,18.16
2023-05-09T12:28:38.015Z,18.44
2023-05-09T12:31:42.137Z,18.01
2023-05-09T12:34:51.747Z,18.00
2023-05-09T12:37:58.681Z,17.78
2023-05-09T12:41:03.786Z,17.81
2023-05-09T12:44:06.413Z,17.70
2023-05-09T12:47:12.591Z,18.18
2023-05-09T12:50:15.044Z,18.69
2023-05-09T12:53:27.900Z,18.31
2023-05-09T12:56:34.210Z,18.47
2023-05-09T12:59:36.607Z,18.64
2023-05-09T13:02:42.348Z,18.39
2023-05-09T13:05:54.492Z,18.27
2023-05-09T13:09:06.366Z,18.64
2023-05-09T13:12:15.594Z,19.07
2023-05-09T13:15:20.357Z,19.36
2023-05-09T13:18:24.293Z,19.23
2023-05-09T13:21:27.353Z,18.47
2023-05-09T13:24:29.901Z,18.82
2023-05-09T13:27:34.128Z,19.17
2023-05-09T13:30:36.553Z,18.88
2023-05-09T13:33:38.912Z,18.26
2023-05-09T13:36:41.271Z,18.07
2023-05-09T13:39:43.576Z,18.25
2023-05-09T13:42:46.335Z,18.37
2023-05-09T13:45:48.802Z,18.31
2023-05-09T13:48:53.563Z,18.14
2023-05-09T13:51:55.884Z,17.99
2023-05-09T13:54:58.348Z,17.93
2023-05-09T13:58:00.667Z,17.67
2023-05-09T14:01:03.332Z,17.56
2023-05-09T14:04:06.011Z,17.89
2023-05-09T14:07:11.156Z,18.33
2023-05-09T14:10:13.696Z,18.81
2023-05-09T14:13:16.256Z,18.73
2023-05-09T14:16:20.118Z,18.78
2023-05-09T14:19:24.797Z,18.75
2023-05-09T14:22:27.112Z,18.62
2023-05-09T14:25:29.573Z,18.82
2023-05-09T14:28:31.871Z,19.09
2023-05-09T14:31:36.085Z,18.90
2023-05-09T14:34:39.354Z,19.16
2023-05-09T14:37:41.834Z,18.48
2023-05-09T14:40:44.233Z,18.21
2023-05-09T14:43:46.506Z,18.08
2023-05-09T14:46:48.956Z,17.82
2023-05-09T14:49:51.472Z,17.78
2023-05-09T14:52:53.880Z,17.58
2023-05-09T14:55:59.246Z,17.44
2023-05-09T14:59:01.718Z,17.71
2023-05-09T15:02:04.236Z,17.55
2023-05-09T15:05:07.121Z,17.65
2023-05-09T15:08:09.334Z,17.82
2023-05-09T15:11:11.642Z,18.17
2023-05-09T15:14:13.940Z,18.45
2023-05-09T15:17:17.324Z,18.24
2023-05-09T15:20:20.011Z,17.96
2023-05-09T15:23:22.792Z,17.72
2023-05-09T15:26:25.080Z,17.45
2023-05-09T15:29:27.505Z,17.28
2023-05-09T15:32:29.810Z,17.27
2023-05-09T15:35:32.235Z,17.39
2023-05-09T15:38:34.749Z,17.46
2023-05-09T15:41:40.870Z,17.82
2023-05-09T15:44:43.711Z,17.70
2023-05-09T15:47:45.995Z,17.56
2023-05-09T15:50:49.662Z,17.59
2023-05-09T15:53:52.107Z,17.18
2023-05-09T15:56:54.751Z,17.11
2023-05-09T15:59:57.218Z,17.04
2023-05-09T16:02:59.566Z,17.02
2023-05-09T16:06:02.319Z,17.09
2023-05-09T16:09:05.175Z,17.22
2023-05-09T16:12:07.680Z,17.35
2023-05-09T16:15:10.422Z,17.34
2023-05-09T16:18:13.379Z,17.47
2023-05-09T16:21:15.794Z,17.56
2023-05-09T16:24:18.079Z,17.61
2023-05-09T16:27:20.376Z,17.63
2023-05-09T16:30:22.769Z,17.66
2023-05-09T16:33:24.991Z,17.35
2023-05-09T16:36:27.410Z,17.21
2023-05-09T16:39:30.808Z,17.17
2023-05-09T16:42:33.152Z,16.98
2023-05-09T16:45:41.426Z,16.91
2023-05-09T16:48:43.726Z,16.83
2023-05-09T16:51:46.142Z,16.77
2023-05-09T16:54:49.240Z,16.69
2023-05-09T16:57:51.543Z,16.71
2023-05-09T17:00:55.080Z,16.61
2023-05-09T17:03:57.371Z,16.51
2023-05-09T17:06:59.654Z,16.35
2023-05-09T17:10:02.038Z,16.29
2023-05-09T17:13:08.745Z,16.23
2023-05-09T17:16:11.459Z,16.27
2023-05-09T17:19:13.799Z,16.21
2023-05-09T17:22:16.108Z,16.27
2023-05-09T17:25:18.467Z,16.34
2023-05-09T17:28:21.062Z,16.38
2023-05-09T17:31:24.150Z,16.28
2023-05-09T17:34:29.653Z,16.07
2023-05-09T17:37:32.103Z,16.00
2023-05-09T17:40:34.415Z,15.91
2023-05-09T17:43:36.691Z,15.78
2023-05-09T17:46:39.910Z,15.65
2023-05-09T17:49:42.563Z,15.61
2023-05-09T17:52:44.915Z,15.49
2023-05-09T17:55:47.182Z,15.37
2023-05-09T17:58:53.073Z,15.31
2023-05-09T18:01:55.645Z,15.38
2023-05-09T18:04:57.953Z,15.21
2023-05-09T18:08:01.411Z,15.13
2023-05-09T18:11:04.134Z,14.92
2023-05-09T18:14:08.062Z,14.84
2023-05-09T18:17:10.452Z,14.70
2023-05-09T18:20:12.946Z,14.59
2023-05-09T18:23:16.087Z,14.54
2023-05-09T18:26:21.461Z,14.54
2023-05-09T18:29:23.845Z,14.45
2023-05-09T18:32:26.246Z,14.42
2023-05-09T18:35:28.641Z,14.36
2023-05-09T18:38:38.157Z,14.23
2023-05-09T18:41:41.095Z,14.15
2023-05-09T18:44:43.493Z,14.03
2023-05-09T18:47:45.829Z,14.05
2023-05-09T18:50:48.953Z,13.93
2023-05-09T18:53:53.022Z,14.00
2023-05-09T18:56:55.321Z,13.89
2023-05-09T18:59:58.402Z,13.88
2023-05-09T19:03:00.743Z,13.65
2023-05-09T19:06:03.122Z,13.52
2023-05-09T19:09:05.689Z,13.56
2023-05-09T19:12:09.709Z,13.40
2023-05-09T19:15:12.456Z,13.27
2023-05-09T19:18:14.804Z,13.13
2023-05-09T19:21:18.838Z,13.23
2023-05-09T19:24:21.333Z,13.09
2023-05-09T19:27:23.635Z,13.13
2023-05-09T19:30:25.926Z,13.18
2023-05-09T19:33:28.240Z,13.11
2023-05-09T19:36:31.134Z,13.07
2023-05-09T19:39:33.478Z,13.00
2023-05-09T19:42:36.423Z,13.01
2023-05-09T19:45:38.630Z,12.77
2023-05-09T19:48:41.045Z,12.61
2023-05-09T19:51:43.618Z,12.49
2023-05-09T19:54:46.268Z,12.45
2023-05-09T19:57:48.579Z,12.34
2023-05-09T20:00:50.842Z,12.37
2023-05-09T20:03:53.491Z,12.28
2023-05-09T20:06:55.922Z,12.12
2023-05-09T20:09:58.275Z,12.14
2023-05-09T20:13:01.286Z,12.19
2023-05-09T20:16:04.248Z,12.13
2023-05-09T20:19:07.737Z,12.15
2023-05-09T20:22:10.042Z,12.12
2023-05-09T20:25:13.616Z,12.07
2023-05-09T20:28:20.117Z,12.12
2023-05-09T20:31:22.451Z,11.96
2023-05-09T20:34:24.861Z,12.07
2023-05-09T20:37:27.167Z,11.93
2023-05-09T20:40:29.502Z,11.83
2023-05-09T20:43:33.974Z,11.77
2023-05-09T20:46:36.869Z,11.65
2023-05-09T20:49:39.108Z,11.65
2023-05-09T20:52:41.392Z,11.73
2023-05-09T20:55:47.350Z,11.67
2023-05-09T20:58:50.632Z,11.73
2023-05-09T21:01:55.557Z,11.89
2023-05-09T21:04:57.933Z,11.92
2023-05-09T21:08:00.741Z,11.85
2023-05-09T21:11:03.140Z,11.80
2023-05-09T21:14:05.978Z,11.75
2023-05-09T21:17:08.406Z,11.66
2023-05-09T21:20:11.100Z,11.54
2023-05-09T21:23:14.484Z,11.51
2023-05-09T21:26:16.973Z,11.44
2023-05-09T21:29:19.245Z,11.30
2023-05-09T21:32:21.628Z,11.29
2023-05-09T21:35:24.074Z,11.36
2023-05-09T21:38:26.340Z,11.43
2023-05-09T21:41:28.961Z,11.64
2023-05-09T21:44:31.328Z,11.64
2023-05-09T21:47:33.770Z,11.74
2023-05-09T21:50:36.347Z,11.96
2023-05-09T21:53:38.660Z,12.16
2023-05-09T21:56:42.618Z,12.27
2023-05-09T21:59:45.307Z,12.13
2023-05-09T22:02:47.974Z,12.08
2023-05-09T22:05:50.351Z,11.94
2023-05-09T22:08:52.694Z,11.72
2023-05-09T22:11:54.929Z,11.72
2023-05-09T22:14:57.677Z,11.56
2023-05-09T22:18:00.150Z,11.75
2023-05-09T22:21:02.580Z,11.66
2023-05-09T22:24:05.217Z,11.76
2023-05-09T22:27:10.566Z,11.76
2023-05-09T22:30:13.066Z,11.79
2023-05-09T22:33:15.472Z,11.91
2023-05-09T22:36:17.758Z,11.99
2023-05-09T22:39:20.084Z,11.99
2023-05-09T22:42:22.380Z,11.99
2023-05-09T22:45:24.769Z,12.00
2023-05-09T22:48:27.050Z,12.07
2023-05-09T22:51:29.279Z,12.11
2023-05-09T22:54:31.564Z,12.23
2023-05-09T22:57:33.855Z,12.28
2023-05-09T23:00:36.195Z,12.14
2023-05-09T23:03:38.514Z,12.24
2023-05-09T23:06:40.848Z,12.33
2023-05-09T23:09:43.223Z,12.39
2023-05-09T23:12:45.654Z,12.43
2023-05-09T23:15:48.536Z,12.49
2023-05-09T23:18:56.778Z,12.53
2023-05-09T23:21:59.386Z,12.51
2023-05-09T23:25:01.670Z,12.40
2023-05-09T23:28:04.003Z,12.41
2023-05-09T23:31:10.111Z,12.56
2023-05-09T23:34:12.412Z,12.58
2023-05-09T23:37:14.727Z,12.55
2023-05-09T23:40:17.167Z,12.54
2023-05-09T23:43:19.561Z,12.53
2023-05-09T23:46:21.857Z,12.42
2023-05-09T23:49:24.151Z,12.25
2023-05-09T23:52:26.531Z,12.36
2023-05-09T23:55:29.232Z,12.32
2023-05-09T23:58:31.529Z,12.32
